sensor_id;sensor_type;location;lat;lon;timestamp;temperature;humidity
20858;DHT22;10589;53.636;10.012;2024-02-21T04:46:45;8.90;99.90
20858;DHT22;10589;53.636;10.012;2024-02-21T04:49:11;8.80;99.90
20858;DHT22;10589;53.636;10.012;2024-02-21T04:51:36;8.80;99.90
20858;DHT22;10589;53.636;10.012;2024-02-21T04:54:02;8.80;99.90
20858;DHT22;10589;53.636;10.012;2024-02-21T04:56:29;8.80;99.90
20858;DHT22;10589;53.636;10.012;2024-02-21T04:58:54;8.80;99.90
20858;DHT22;10589;53.636;10.012;2024-02-21T05:01:20;8.80;99.90
20858;DHT22;10589;53.636;10.012;2024-02-21T05:03:45;8.70;99.90
20858;DHT22;10589;53.636;10.012;2024-02-21T05:06:11;8.70;99.90
20858;DHT22;10589;53.636;10.012;2024-02-21T05:08:36;8.70;99.90
20858;DHT22;10589;53.636;10.012;2024-02-21T05:11:02;8.70;99.90
20858;DHT22;10589;53.636;10.012;2024-02-21T05:13:28;8.70;99.90
20858;DHT22;10589;53.636;10.012;2024-02-21T05:15:53;8.80;99.90
20858;DHT22;10589;53.636;10.012;2024-02-21T05:18:19;8.70;99.90
20858;DHT22;10589;53.636;10.012;2024-02-21T05:20:46;8.70;99.90
20858;DHT22;10589;53.636;10.012;2024-02-21T05:23:11;8.70;99.90
20858;DHT22;10589;53.636;10.012;2024-02-21T05:25:37;8.70;99.90
20858;DHT22;10589;53.636;10.012;2024-02-21T05:28:03;8.70;99.90
20858;DHT22;10589;53.636;10.012;2024-02-21T05:30:31;8.70;99.90
20858;DHT22;10589;53.636;10.012;2024-02-21T05:32:56;8.80;99.90
20858;DHT22;10589;53.636;10.012;2024-02-21T05:35:30;8.80;99.90
20858;DHT22;10589;53.636;10.012;2024-02-21T05:37:56;8.70;99.90
20858;DHT22;10589;53.636;10.012;2024-02-21T05:40:22;8.80;99.90
20858;DHT22;10589;53.636;10.012;2024-02-21T05:42:48;8.70;99.90
20858;DHT22;10589;53.636;10.012;2024-02-21T05:45:14;8.70;99.90
20858;DHT22;10589;53.636;10.012;2024-02-21T05:47:41;8.70;99.90
20858;DHT22;10589;53.636;10.012;2024-02-21T05:50:07;8.70;99.90
20858;DHT22;10589;53.636;10.012;2024-02-21T05:52:35;8.70;99.90
20858;DHT22;10589;53.636;10.012;2024-02-21T05:55:03;8.70;99.90
20858;DHT22;10589;53.636;10.012;2024-02-21T05:57:29;8.80;99.90
20858;DHT22;10589;53.636;10.012;2024-02-21T05:59:55;8.80;99.90
20858;DHT22;10589;53.636;10.012;2024-02-21T06:02:20;8.80;99.90
20858;DHT22;10589;53.636;10.012;2024-02-21T06:04:46;8.80;99.90
20858;DHT22;10589;53.636;10.012;2024-02-21T06:07:12;8.80;99.90
20858;DHT22;10589;53.636;10.012;2024-02-21T06:09:38;8.80;99.90
20858;DHT22;10589;53.636;10.012;2024-02-21T06:12:06;8.80;99.90
20858;DHT22;10589;53.636;10.012;2024-02-21T06:14:36;8.80;99.90
20858;DHT22;10589;53.636;10.012;2024-02-21T06:17:03;8.80;99.90
20858;DHT22;10589;53.636;10.012;2024-02-21T06:19:28;8.80;99.90
20858;DHT22;10589;53.636;10.012;2024-02-21T06:22:01;8.80;99.90
20858;DHT22;10589;53.636;10.012;2024-02-21T06:24:26;8.70;99.90
20858;DHT22;10589;53.636;10.012;2024-02-21T06:26:52;8.80;99.90
20858;DHT22;10589;53.636;10.012;2024-02-21T06:29:17;8.80;99.90
20858;DHT22;10589;53.636;10.012;2024-02-21T06:31:43;8.80;99.90
20858;DHT22;10589;53.636;10.012;2024-02-21T06:34:10;8.80;99.90
20858;DHT22;10589;53.636;10.012;2024-02-21T06:36:35;8.80;99.90
20858;DHT22;10589;53.636;10.012;2024-02-21T06:39:01;8.80;99.90
20858;DHT22;10589;53.636;10.012;2024-02-21T06:41:27;8.80;99.90
20858;DHT22;10589;53.636;10.012;2024-02-21T06:43:52;8.80;99.90
20858;DHT22;10589;53.636;10.012;2024-02-21T06:46:26;8.80;99.90
20858;DHT22;10589;53.636;10.012;2024-02-21T06:48:52;8.80;99.90
20858;DHT22;10589;53.636;10.012;2024-02-21T06:51:18;8.80;99.90
20858;DHT22;10589;53.636;10.012;2024-02-21T06:53:44;8.80;99.90
20858;DHT22;10589;53.636;10.012;2024-02-21T06:56:10;8.90;99.90
20858;DHT22;10589;53.636;10.012;2024-02-21T06:58:36;8.90;99.90
20858;DHT22;10589;53.636;10.012;2024-02-21T07:01:01;8.90;99.90
20858;DHT22;10589;53.636;10.012;2024-02-21T07:03:27;8.80;99.90
20858;DHT22;10589;53.636;10.012;2024-02-21T07:05:53;8.90;99.90
20858;DHT22;10589;53.636;10.012;2024-02-21T07:08:18;8.90;99.90
20858;DHT22;10589;53.636;10.012;2024-02-21T07:10:44;8.90;99.90
20858;DHT22;10589;53.636;10.012;2024-02-21T07:13:09;9.00;99.90
20858;DHT22;10589;53.636;10.012;2024-02-21T07:15:35;8.90;99.90
20858;DHT22;10589;53.636;10.012;2024-02-21T07:18:02;8.90;99.90
20858;DHT22;10589;53.636;10.012;2024-02-21T07:20:27;8.90;99.90
20858;DHT22;10589;53.636;10.012;2024-02-21T07:22:54;8.90;99.90
20858;DHT22;10589;53.636;10.012;2024-02-21T07:25:19;8.90;99.90
20858;DHT22;10589;53.636;10.012;2024-02-21T07:27:45;9.00;99.90
20858;DHT22;10589;53.636;10.012;2024-02-21T07:30:11;8.90;99.90
20858;DHT22;10589;53.636;10.012;2024-02-21T07:32:37;8.90;99.90
20858;DHT22;10589;53.636;10.012;2024-02-21T07:35:02;8.90;99.90
20858;DHT22;10589;53.636;10.012;2024-02-21T07:37:28;8.90;99.90
20858;DHT22;10589;53.636;10.012;2024-02-21T07:39:54;8.90;99.90
20858;DHT22;10589;53.636;10.012;2024-02-21T07:42:19;9.00;99.90
20858;DHT22;10589;53.636;10.012;2024-02-21T07:44:45;9.00;99.90
20858;DHT22;10589;53.636;10.012;2024-02-21T07:47:11;9.00;99.90
20858;DHT22;10589;53.636;10.012;2024-02-21T07:49:45;8.90;99.90
20858;DHT22;10589;53.636;10.012;2024-02-21T07:52:11;8.90;99.90
20858;DHT22;10589;53.636;10.012;2024-02-21T07:54:37;8.90;99.90
20858;DHT22;10589;53.636;10.012;2024-02-21T07:57:02;8.80;99.90
20858;DHT22;10589;53.636;10.012;2024-02-21T07:59:29;8.80;99.90
20858;DHT22;10589;53.636;10.012;2024-02-21T08:01:58;8.80;99.90
20858;DHT22;10589;53.636;10.012;2024-02-21T08:04:24;8.80;99.90
20858;DHT22;10589;53.636;10.012;2024-02-21T08:06:53;8.90;99.90
20858;DHT22;10589;53.636;10.012;2024-02-21T08:09:21;8.90;99.90
20858;DHT22;10589;53.636;10.012;2024-02-21T08:11:47;8.90;99.90
20858;DHT22;10589;53.636;10.012;2024-02-21T08:14:13;8.90;99.90
20858;DHT22;10589;53.636;10.012;2024-02-21T08:16:41;8.90;99.90
20858;DHT22;10589;53.636;10.012;2024-02-21T08:19:07;9.00;99.90
20858;DHT22;10589;53.636;10.012;2024-02-21T08:21:33;9.00;99.90
20858;DHT22;10589;53.636;10.012;2024-02-21T08:23:58;9.00;99.90
20858;DHT22;10589;53.636;10.012;2024-02-21T08:26:24;9.10;99.90
20858;DHT22;10589;53.636;10.012;2024-02-21T08:28:53;9.00;99.90
20858;DHT22;10589;53.636;10.012;2024-02-21T08:31:21;9.00;99.90
20858;DHT22;10589;53.636;10.012;2024-02-21T08:33:49;9.00;99.90
20858;DHT22;10589;53.636;10.012;2024-02-21T08:36:18;9.00;99.90
20858;DHT22;10589;53.636;10.012;2024-02-21T08:38:47;9.10;99.90
20858;DHT22;10589;53.636;10.012;2024-02-21T08:41:13;9.00;99.90
20858;DHT22;10589;53.636;10.012;2024-02-21T08:43:38;9.10;99.90
20858;DHT22;10589;53.636;10.012;2024-02-21T08:46:05;9.10;99.90
20858;DHT22;10589;53.636;10.012;2024-02-21T08:48:30;9.20;99.90
20858;DHT22;10589;53.636;10.012;2024-02-21T08:50:56;9.10;99.90
20858;DHT22;10589;53.636;10.012;2024-02-21T08:53:22;9.10;99.90
20858;DHT22;10589;53.636;10.012;2024-02-21T08:55:47;9.10;99.90
20858;DHT22;10589;53.636;10.012;2024-02-21T08:58:13;9.10;99.90
20858;DHT22;10589;53.636;10.012;2024-02-21T09:00:40;9.20;99.90
20858;DHT22;10589;53.636;10.012;2024-02-21T09:03:05;9.20;99.90
20858;DHT22;10589;53.636;10.012;2024-02-21T09:05:31;9.30;99.90
20858;DHT22;10589;53.636;10.012;2024-02-21T09:07:57;9.10;99.90
20858;DHT22;10589;53.636;10.012;2024-02-21T09:10:22;9.00;99.90
20858;DHT22;10589;53.636;10.012;2024-02-21T09:12:48;9.10;99.90
20858;DHT22;10589;53.636;10.012;2024-02-21T09:15:14;9.20;99.90
20858;DHT22;10589;53.636;10.012;2024-02-21T09:17:39;9.20;99.90
20858;DHT22;10589;53.636;10.012;2024-02-21T09:20:06;9.10;99.90
20858;DHT22;10589;53.636;10.012;2024-02-21T09:22:33;9.10;99.90
20858;DHT22;10589;53.636;10.012;2024-02-21T09:25:00;9.20;99.90
20858;DHT22;10589;53.636;10.012;2024-02-21T09:27:26;9.20;99.90
20858;DHT22;10589;53.636;10.012;2024-02-21T09:29:52;9.20;99.90
20858;DHT22;10589;53.636;10.012;2024-02-21T09:32:20;9.20;99.90
20858;DHT22;10589;53.636;10.012;2024-02-21T09:34:46;9.10;99.90
20858;DHT22;10589;53.636;10.012;2024-02-21T09:37:11;9.10;99.90
20858;DHT22;10589;53.636;10.012;2024-02-21T09:39:37;9.00;99.90
20858;DHT22;10589;53.636;10.012;2024-02-21T09:42:06;9.00;99.90
20858;DHT22;10589;53.636;10.012;2024-02-21T09:44:38;9.10;99.90
20858;DHT22;10589;53.636;10.012;2024-02-21T09:47:07;9.10;99.90
20858;DHT22;10589;53.636;10.012;2024-02-21T09:49:35;9.20;99.90
20858;DHT22;10589;53.636;10.012;2024-02-21T09:52:07;9.10;99.90
20858;DHT22;10589;53.636;10.012;2024-02-21T09:54:34;9.00;99.90
20858;DHT22;10589;53.636;10.012;2024-02-21T09:57:03;9.10;99.90
20858;DHT22;10589;53.636;10.012;2024-02-21T09:59:31;9.10;99.90
20858;DHT22;10589;53.636;10.012;2024-02-21T10:01:57;9.00;99.90
20858;DHT22;10589;53.636;10.012;2024-02-21T10:04:25;9.00;99.90
20858;DHT22;10589;53.636;10.012;2024-02-21T10:06:51;9.10;99.90
20858;DHT22;10589;53.636;10.012;2024-02-21T10:09:28;9.20;99.90
20858;DHT22;10589;53.636;10.012;2024-02-21T10:11:55;9.20;99.90
20858;DHT22;10589;53.636;10.012;2024-02-21T10:14:21;9.10;99.90
20858;DHT22;10589;53.636;10.012;2024-02-21T10:16:57;9.10;99.90
20858;DHT22;10589;53.636;10.012;2024-02-21T10:19:25;9.00;99.90
20858;DHT22;10589;53.636;10.012;2024-02-21T10:22:01;9.00;99.90
20858;DHT22;10589;53.636;10.012;2024-02-21T10:24:31;9.00;99.90
20858;DHT22;10589;53.636;10.012;2024-02-21T10:27:07;9.00;99.90
20858;DHT22;10589;53.636;10.012;2024-02-21T10:29:34;9.00;99.90
20858;DHT22;10589;53.636;10.012;2024-02-21T10:32:27;9.00;99.90
20858;DHT22;10589;53.636;10.012;2024-02-21T10:35:03;9.00;99.90
20858;DHT22;10589;53.636;10.012;2024-02-21T10:37:32;9.00;99.90
20858;DHT22;10589;53.636;10.012;2024-02-21T10:39:58;9.00;99.90
20858;DHT22;10589;53.636;10.012;2024-02-21T10:42:30;9.10;99.90
20858;DHT22;10589;53.636;10.012;2024-02-21T10:45:00;9.10;99.90
20858;DHT22;10589;53.636;10.012;2024-02-21T10:47:31;9.10;99.90
20858;DHT22;10589;53.636;10.012;2024-02-21T10:50:04;9.10;99.90
20858;DHT22;10589;53.636;10.012;2024-02-21T10:55:21;9.20;99.90
20858;DHT22;10589;53.636;10.012;2024-02-21T10:57:50;9.30;99.90
20858;DHT22;10589;53.636;10.012;2024-02-21T11:00:17;9.20;99.90
20858;DHT22;10589;53.636;10.012;2024-02-21T11:02:44;9.20;99.90
20858;DHT22;10589;53.636;10.012;2024-02-21T11:05:09;9.20;99.90
20858;DHT22;10589;53.636;10.012;2024-02-21T11:07:37;9.20;99.90
20858;DHT22;10589;53.636;10.012;2024-02-21T11:10:03;9.20;99.90
20858;DHT22;10589;53.636;10.012;2024-02-21T11:12:32;9.10;99.90
20858;DHT22;10589;53.636;10.012;2024-02-21T11:15:07;9.10;99.90
20858;DHT22;10589;53.636;10.012;2024-02-21T11:17:33;9.10;99.90
20858;DHT22;10589;53.636;10.012;2024-02-21T11:20:11;9.10;99.90
20858;DHT22;10589;53.636;10.012;2024-02-21T11:22:44;9.10;99.90
20858;DHT22;10589;53.636;10.012;2024-02-21T11:25:10;9.10;99.90
20858;DHT22;10589;53.636;10.012;2024-02-21T11:27:38;9.00;99.90
20858;DHT22;10589;53.636;10.012;2024-02-21T11:30:05;9.00;99.90
20858;DHT22;10589;53.636;10.012;2024-02-21T11:32:31;9.20;99.90
20858;DHT22;10589;53.636;10.012;2024-02-21T11:34:58;9.20;99.90
20858;DHT22;10589;53.636;10.012;2024-02-21T11:37:28;9.10;99.90
20858;DHT22;10589;53.636;10.012;2024-02-21T11:39:55;9.10;99.90
20858;DHT22;10589;53.636;10.012;2024-02-21T11:42:20;9.10;99.90
20858;DHT22;10589;53.636;10.012;2024-02-21T11:44:46;9.10;99.90
20858;DHT22;10589;53.636;10.012;2024-02-21T11:47:14;9.00;99.90
20858;DHT22;10589;53.636;10.012;2024-02-21T11:49:46;9.00;99.90
20858;DHT22;10589;53.636;10.012;2024-02-21T11:52:12;9.00;99.90
20858;DHT22;10589;53.636;10.012;2024-02-21T11:54:40;9.00;99.90
20858;DHT22;10589;53.636;10.012;2024-02-21T11:57:06;8.90;99.90
20858;DHT22;10589;53.636;10.012;2024-02-21T11:59:32;8.90;99.90
20858;DHT22;10589;53.636;10.012;2024-02-21T12:01:59;8.90;99.90
20858;DHT22;10589;53.636;10.012;2024-02-21T12:04:26;9.00;99.90
20858;DHT22;10589;53.636;10.012;2024-02-21T12:06:53;9.00;99.90
20858;DHT22;10589;53.636;10.012;2024-02-21T12:09:19;8.90;99.90
20858;DHT22;10589;53.636;10.012;2024-02-21T12:11:45;8.90;99.90
20858;DHT22;10589;53.636;10.012;2024-02-21T12:14:16;8.90;99.90
20858;DHT22;10589;53.636;10.012;2024-02-21T12:16:42;8.90;99.90
20858;DHT22;10589;53.636;10.012;2024-02-21T12:19:09;8.90;99.90
20858;DHT22;10589;53.636;10.012;2024-02-21T12:21:35;9.00;99.90
20858;DHT22;10589;53.636;10.012;2024-02-21T12:24:23;8.90;99.90
20858;DHT22;10589;53.636;10.012;2024-02-21T12:26:53;8.80;99.90
20858;DHT22;10589;53.636;10.012;2024-02-21T12:29:19;8.90;99.90
20858;DHT22;10589;53.636;10.012;2024-02-21T12:31:45;9.00;99.90
20858;DHT22;10589;53.636;10.012;2024-02-21T12:34:11;8.90;99.90
20858;DHT22;10589;53.636;10.012;2024-02-21T12:36:41;8.90;99.90
20858;DHT22;10589;53.636;10.012;2024-02-21T12:39:08;8.80;99.90
20858;DHT22;10589;53.636;10.012;2024-02-21T12:41:34;8.80;99.90
20858;DHT22;10589;53.636;10.012;2024-02-21T12:44:09;8.80;99.90
20858;DHT22;10589;53.636;10.012;2024-02-21T12:46:37;8.70;99.90
20858;DHT22;10589;53.636;10.012;2024-02-21T12:49:03;8.70;99.90
20858;DHT22;10589;53.636;10.012;2024-02-21T12:51:32;8.60;99.90
20858;DHT22;10589;53.636;10.012;2024-02-21T12:53:58;8.70;99.90
20858;DHT22;10589;53.636;10.012;2024-02-21T12:56:24;8.70;99.90
20858;DHT22;10589;53.636;10.012;2024-02-21T12:58:51;8.60;99.90
20858;DHT22;10589;53.636;10.012;2024-02-21T13:01:17;8.60;99.90
20858;DHT22;10589;53.636;10.012;2024-02-21T13:03:42;8.60;99.90
20858;DHT22;10589;53.636;10.012;2024-02-21T13:06:08;8.60;99.90
20858;DHT22;10589;53.636;10.012;2024-02-21T13:08:36;8.60;99.90
20858;DHT22;10589;53.636;10.012;2024-02-21T13:11:02;8.70;99.90
20858;DHT22;10589;53.636;10.012;2024-02-21T13:13:28;8.60;99.90
20858;DHT22;10589;53.636;10.012;2024-02-21T13:15:53;8.70;99.90
20858;DHT22;10589;53.636;10.012;2024-02-21T13:18:19;8.70;99.90
20858;DHT22;10589;53.636;10.012;2024-02-21T13:20:45;8.60;99.90
20858;DHT22;10589;53.636;10.012;2024-02-21T13:23:10;8.60;99.90
20858;DHT22;10589;53.636;10.012;2024-02-21T13:25:36;8.70;99.90
20858;DHT22;10589;53.636;10.012;2024-02-21T13:28:02;8.80;99.90
20858;DHT22;10589;53.636;10.012;2024-02-21T13:30:28;8.80;99.90
20858;DHT22;10589;53.636;10.012;2024-02-21T13:32:54;8.90;99.90
20858;DHT22;10589;53.636;10.012;2024-02-21T13:35:20;8.90;99.90
20858;DHT22;10589;53.636;10.012;2024-02-21T13:37:46;8.90;99.90
20858;DHT22;10589;53.636;10.012;2024-02-21T13:40:11;8.80;99.90
20858;DHT22;10589;53.636;10.012;2024-02-21T13:42:39;8.90;99.90
20858;DHT22;10589;53.636;10.012;2024-02-21T13:45:06;8.90;99.90
20858;DHT22;10589;53.636;10.012;2024-02-21T13:47:35;8.90;99.90
20858;DHT22;10589;53.636;10.012;2024-02-21T13:50:07;8.90;99.90
20858;DHT22;10589;53.636;10.012;2024-02-21T13:52:42;8.80;99.90
20858;DHT22;10589;53.636;10.012;2024-02-21T13:55:08;8.80;99.90
20858;DHT22;10589;53.636;10.012;2024-02-21T13:57:37;8.90;99.90
20858;DHT22;10589;53.636;10.012;2024-02-21T14:00:04;8.80;99.90
20858;DHT22;10589;53.636;10.012;2024-02-21T14:02:30;8.80;99.90
20858;DHT22;10589;53.636;10.012;2024-02-21T14:04:56;8.80;99.90
20858;DHT22;10589;53.636;10.012;2024-02-21T14:07:22;8.80;99.90
20858;DHT22;10589;53.636;10.012;2024-02-21T14:09:48;8.80;99.90
20858;DHT22;10589;53.636;10.012;2024-02-21T14:12:13;8.80;99.90
20858;DHT22;10589;53.636;10.012;2024-02-21T14:14:39;8.80;99.90
20858;DHT22;10589;53.636;10.012;2024-02-21T14:17:05;8.90;99.90
20858;DHT22;10589;53.636;10.012;2024-02-21T14:19:30;8.80;99.90
20858;DHT22;10589;53.636;10.012;2024-02-21T14:21:56;8.90;99.90
20858;DHT22;10589;53.636;10.012;2024-02-21T14:24:23;8.90;99.90
20858;DHT22;10589;53.636;10.012;2024-02-21T14:26:48;8.90;99.90
20858;DHT22;10589;53.636;10.012;2024-02-21T14:29:14;9.00;99.90
20858;DHT22;10589;53.636;10.012;2024-02-21T14:31:40;9.00;99.90
20858;DHT22;10589;53.636;10.012;2024-02-21T14:34:05;9.10;99.90
20858;DHT22;10589;53.636;10.012;2024-02-21T14:36:33;9.10;99.90
20858;DHT22;10589;53.636;10.012;2024-02-21T14:38:58;9.10;99.90
20858;DHT22;10589;53.636;10.012;2024-02-21T14:41:24;9.10;99.90
20858;DHT22;10589;53.636;10.012;2024-02-21T14:43:50;9.10;99.90
20858;DHT22;10589;53.636;10.012;2024-02-21T14:46:17;9.10;99.90
20858;DHT22;10589;53.636;10.012;2024-02-21T14:48:42;9.10;99.90
20858;DHT22;10589;53.636;10.012;2024-02-21T14:51:08;9.10;99.90
20858;DHT22;10589;53.636;10.012;2024-02-21T14:53:33;9.20;99.90
20858;DHT22;10589;53.636;10.012;2024-02-21T14:55:59;9.10;99.90
20858;DHT22;10589;53.636;10.012;2024-02-21T14:58:25;9.00;99.90
20858;DHT22;10589;53.636;10.012;2024-02-21T15:00:50;9.10;99.90
20858;DHT22;10589;53.636;10.012;2024-02-21T15:03:16;9.00;99.90
20858;DHT22;10589;53.636;10.012;2024-02-21T15:05:45;9.10;99.90
20858;DHT22;10589;53.636;10.012;2024-02-21T15:08:11;9.00;99.90
20858;DHT22;10589;53.636;10.012;2024-02-21T15:10:37;8.90;99.90
20858;DHT22;10589;53.636;10.012;2024-02-21T15:13:03;8.90;99.90
20858;DHT22;10589;53.636;10.012;2024-02-21T15:15:29;8.90;99.90
20858;DHT22;10589;53.636;10.012;2024-02-21T15:17:56;8.80;99.90
20858;DHT22;10589;53.636;10.012;2024-02-21T15:20:22;8.80;99.90
20858;DHT22;10589;53.636;10.012;2024-02-21T15:22:47;8.80;99.90
20858;DHT22;10589;53.636;10.012;2024-02-21T15:25:15;8.80;99.90
20858;DHT22;10589;53.636;10.012;2024-02-21T15:27:42;8.90;99.90
20858;DHT22;10589;53.636;10.012;2024-02-21T15:30:09;8.90;99.90
20858;DHT22;10589;53.636;10.012;2024-02-21T15:32:35;8.90;99.90
20858;DHT22;10589;53.636;10.012;2024-02-21T15:35:03;9.00;99.90
20858;DHT22;10589;53.636;10.012;2024-02-21T15:37:29;9.00;99.90
20858;DHT22;10589;53.636;10.012;2024-02-21T15:39:55;9.10;99.90
20858;DHT22;10589;53.636;10.012;2024-02-21T15:42:20;9.10;99.90
20858;DHT22;10589;53.636;10.012;2024-02-21T15:44:46;9.10;99.90
20858;DHT22;10589;53.636;10.012;2024-02-21T15:47:12;9.10;99.90
20858;DHT22;10589;53.636;10.012;2024-02-21T15:49:38;9.20;99.90
20858;DHT22;10589;53.636;10.012;2024-02-21T15:52:03;9.20;99.90
20858;DHT22;10589;53.636;10.012;2024-02-21T15:54:29;9.20;99.90
20858;DHT22;10589;53.636;10.012;2024-02-21T15:56:55;9.20;99.90
20858;DHT22;10589;53.636;10.012;2024-02-21T15:59:21;9.20;99.90
20858;DHT22;10589;53.636;10.012;2024-02-21T16:01:47;9.20;99.90
20858;DHT22;10589;53.636;10.012;2024-02-21T16:04:12;9.20;99.90
20858;DHT22;10589;53.636;10.012;2024-02-21T16:06:40;9.10;99.90
20858;DHT22;10589;53.636;10.012;2024-02-21T16:09:06;9.10;99.90
20858;DHT22;10589;53.636;10.012;2024-02-21T16:11:34;9.10;99.90
20858;DHT22;10589;53.636;10.012;2024-02-21T16:14:02;9.10;99.90
20858;DHT22;10589;53.636;10.012;2024-02-21T16:16:28;9.10;99.90
20858;DHT22;10589;53.636;10.012;2024-02-21T16:18:55;9.00;99.90
20858;DHT22;10589;53.636;10.012;2024-02-21T16:21:21;9.00;99.90
20858;DHT22;10589;53.636;10.012;2024-02-21T16:23:47;8.80;99.90
20858;DHT22;10589;53.636;10.012;2024-02-21T16:26:12;8.80;99.90
20858;DHT22;10589;53.636;10.012;2024-02-21T16:28:38;8.80;99.90
20858;DHT22;10589;53.636;10.012;2024-02-21T16:31:04;8.70;99.90
20858;DHT22;10589;53.636;10.012;2024-02-21T16:33:29;8.70;99.90
20858;DHT22;10589;53.636;10.012;2024-02-21T16:35:55;8.70;99.90
20858;DHT22;10589;53.636;10.012;2024-02-21T16:38:21;8.70;99.90
20858;DHT22;10589;53.636;10.012;2024-02-21T16:40:46;8.80;99.90
20858;DHT22;10589;53.636;10.012;2024-02-21T16:43:13;8.90;99.90
20858;DHT22;10589;53.636;10.012;2024-02-21T16:45:38;8.90;99.90
20858;DHT22;10589;53.636;10.012;2024-02-21T16:48:04;8.90;99.90
20858;DHT22;10589;53.636;10.012;2024-02-21T16:50:31;8.90;99.90
20858;DHT22;10589;53.636;10.012;2024-02-21T16:52:56;9.00;99.90
20858;DHT22;10589;53.636;10.012;2024-02-21T16:55:22;9.00;99.90
20858;DHT22;10589;53.636;10.012;2024-02-21T16:57:47;8.90;99.90
20858;DHT22;10589;53.636;10.012;2024-02-21T17:00:13;8.80;99.90
20858;DHT22;10589;53.636;10.012;2024-02-21T17:02:43;8.80;99.90
20858;DHT22;10589;53.636;10.012;2024-02-21T17:05:09;8.80;99.90
20858;DHT22;10589;53.636;10.012;2024-02-21T17:07:34;8.90;99.90
20858;DHT22;10589;53.636;10.012;2024-02-21T17:10:03;8.80;99.90
20858;DHT22;10589;53.636;10.012;2024-02-21T17:12:34;8.90;99.90
20858;DHT22;10589;53.636;10.012;2024-02-21T17:15:04;8.80;99.90
20858;DHT22;10589;53.636;10.012;2024-02-21T17:17:29;8.90;99.90
20858;DHT22;10589;53.636;10.012;2024-02-21T17:19:55;8.90;99.90
20858;DHT22;10589;53.636;10.012;2024-02-21T17:22:21;8.90;99.90
20858;DHT22;10589;53.636;10.012;2024-02-21T17:24:46;8.90;99.90
20858;DHT22;10589;53.636;10.012;2024-02-21T17:27:12;8.90;99.90
20858;DHT22;10589;53.636;10.012;2024-02-21T17:29:38;8.80;99.90
20858;DHT22;10589;53.636;10.012;2024-02-21T17:32:04;8.80;99.90
20858;DHT22;10589;53.636;10.012;2024-02-21T17:34:30;8.80;99.90
20858;DHT22;10589;53.636;10.012;2024-02-21T17:36:56;8.80;99.90
20858;DHT22;10589;53.636;10.012;2024-02-21T17:39:21;8.80;99.90
20858;DHT22;10589;53.636;10.012;2024-02-21T17:41:47;8.80;99.90
20858;DHT22;10589;53.636;10.012;2024-02-21T17:44:17;8.80;99.90
20858;DHT22;10589;53.636;10.012;2024-02-21T17:46:43;8.80;99.90
20858;DHT22;10589;53.636;10.012;2024-02-21T17:49:09;8.80;99.90
20858;DHT22;10589;53.636;10.012;2024-02-21T17:51:35;8.80;99.90
20858;DHT22;10589;53.636;10.012;2024-02-21T17:54:00;8.80;99.90
20858;DHT22;10589;53.636;10.012;2024-02-21T17:56:26;8.80;99.90
20858;DHT22;10589;53.636;10.012;2024-02-21T17:58:51;8.80;99.90
20858;DHT22;10589;53.636;10.012;2024-02-21T18:01:17;8.70;99.90
20858;DHT22;10589;53.636;10.012;2024-02-21T18:03:43;8.70;99.90
20858;DHT22;10589;53.636;10.012;2024-02-21T18:06:09;8.60;99.90
20858;DHT22;10589;53.636;10.012;2024-02-21T18:08:34;8.60;99.90
20858;DHT22;10589;53.636;10.012;2024-02-21T18:11:00;8.60;99.90
20858;DHT22;10589;53.636;10.012;2024-02-21T18:13:26;8.60;99.90
20858;DHT22;10589;53.636;10.012;2024-02-21T18:15:58;8.60;99.90
20858;DHT22;10589;53.636;10.012;2024-02-21T18:18:24;8.60;99.90
20858;DHT22;10589;53.636;10.012;2024-02-21T18:20:49;8.50;99.90
20858;DHT22;10589;53.636;10.012;2024-02-21T18:23:17;8.50;99.90
20858;DHT22;10589;53.636;10.012;2024-02-21T18:25:44;8.50;99.90
20858;DHT22;10589;53.636;10.012;2024-02-21T18:28:12;8.50;99.90
20858;DHT22;10589;53.636;10.012;2024-02-21T18:30:37;8.50;99.90
20858;DHT22;10589;53.636;10.012;2024-02-21T18:33:03;8.50;99.90
20858;DHT22;10589;53.636;10.012;2024-02-21T18:35:29;8.40;99.90
20858;DHT22;10589;53.636;10.012;2024-02-21T18:37:57;8.40;99.90
20858;DHT22;10589;53.636;10.012;2024-02-21T18:40:23;8.50;99.90
20858;DHT22;10589;53.636;10.012;2024-02-21T18:42:49;8.50;99.90
20858;DHT22;10589;53.636;10.012;2024-02-21T18:45:14;8.50;99.90
20858;DHT22;10589;53.636;10.012;2024-02-21T18:47:43;8.50;99.90
20858;DHT22;10589;53.636;10.012;2024-02-21T18:50:09;8.50;99.90
20858;DHT22;10589;53.636;10.012;2024-02-21T18:52:35;8.40;99.90
20858;DHT22;10589;53.636;10.012;2024-02-21T18:55:01;8.50;99.90
20858;DHT22;10589;53.636;10.012;2024-02-21T18:57:28;8.50;99.90
20858;DHT22;10589;53.636;10.012;2024-02-21T18:59:54;8.50;99.90
20858;DHT22;10589;53.636;10.012;2024-02-21T19:02:20;8.50;99.90
20858;DHT22;10589;53.636;10.012;2024-02-21T19:04:46;8.50;99.90
20858;DHT22;10589;53.636;10.012;2024-02-21T19:07:12;8.60;99.90
20858;DHT22;10589;53.636;10.012;2024-02-21T19:09:38;8.60;99.90
20858;DHT22;10589;53.636;10.012;2024-02-21T19:12:06;8.60;99.90
20858;DHT22;10589;53.636;10.012;2024-02-21T19:14:31;8.60;99.90
20858;DHT22;10589;53.636;10.012;2024-02-21T19:16:57;8.50;99.90
20858;DHT22;10589;53.636;10.012;2024-02-21T19:19:23;8.50;99.90
20858;DHT22;10589;53.636;10.012;2024-02-21T19:21:49;8.60;99.90
20858;DHT22;10589;53.636;10.012;2024-02-21T19:24:14;8.60;99.90
20858;DHT22;10589;53.636;10.012;2024-02-21T19:26:41;8.50;99.90
20858;DHT22;10589;53.636;10.012;2024-02-21T19:29:06;8.60;99.90
20858;DHT22;10589;53.636;10.012;2024-02-21T19:31:32;8.60;99.90
20858;DHT22;10589;53.636;10.012;2024-02-21T19:33:57;8.60;99.90
20858;DHT22;10589;53.636;10.012;2024-02-21T19:36:23;8.60;99.90
20858;DHT22;10589;53.636;10.012;2024-02-21T19:38:48;8.70;99.90
20858;DHT22;10589;53.636;10.012;2024-02-21T19:41:16;8.70;99.90
20858;DHT22;10589;53.636;10.012;2024-02-21T19:43:41;8.70;99.90
20858;DHT22;10589;53.636;10.012;2024-02-21T19:46:08;8.60;99.90
20858;DHT22;10589;53.636;10.012;2024-02-21T19:48:36;8.60;99.90
20858;DHT22;10589;53.636;10.012;2024-02-21T19:51:01;8.60;99.90
20858;DHT22;10589;53.636;10.012;2024-02-21T19:53:29;8.60;99.90
20858;DHT22;10589;53.636;10.012;2024-02-21T19:55:54;8.50;99.90
20858;DHT22;10589;53.636;10.012;2024-02-21T19:58:20;8.70;99.90
20858;DHT22;10589;53.636;10.012;2024-02-21T20:00:45;8.60;99.90
20858;DHT22;10589;53.636;10.012;2024-02-21T20:03:11;8.60;99.90
20858;DHT22;10589;53.636;10.012;2024-02-21T20:05:37;8.60;99.90
20858;DHT22;10589;53.636;10.012;2024-02-21T20:08:07;8.50;99.90
20858;DHT22;10589;53.636;10.012;2024-02-21T20:10:34;8.60;99.90
20858;DHT22;10589;53.636;10.012;2024-02-21T20:12:59;8.60;99.90
20858;DHT22;10589;53.636;10.012;2024-02-21T20:15:25;8.60;99.90